createdAt,value
2024-05-09T00:05:57.082Z,41.42
2024-05-09T00:15:58.550Z,41.73
2024-05-09T00:26:00.011Z,41.04
2024-05-09T00:36:01.415Z,41.24
2024-05-09T00:46:02.797Z,41.04
2024-05-09T00:56:04.271Z,40.80
2024-05-09T01:06:05.871Z,40.72
2024-05-09T01:16:07.258Z,40.75
2024-05-09T01:26:08.650Z,41.15
2024-05-09T01:36:10.024Z,40.71
2024-05-09T01:46:11.413Z,40.50
2024-05-09T01:56:12.802Z,40.71
2024-05-09T02:06:14.308Z,40.38
2024-05-09T02:16:15.748Z,40.80
2024-05-09T02:26:17.228Z,40.46
2024-05-09T02:36:18.706Z,40.67
2024-05-09T02:46:20.077Z,40.74
2024-05-09T02:56:21.506Z,40.28
2024-05-09T03:06:22.966Z,40.08
2024-05-09T03:16:24.347Z,40.14
2024-05-09T03:26:25.808Z,39.91
2024-05-09T03:36:27.283Z,40.08
2024-05-09T03:46:28.660Z,39.49
2024-05-09T03:56:30.132Z,39.13
2024-05-09T04:06:31.606Z,39.26
2024-05-09T04:16:32.969Z,39.45
2024-05-09T04:26:34.880Z,39.26
2024-05-09T04:36:36.311Z,39.19
2024-05-09T04:46:37.673Z,39.33
2024-05-09T04:56:39.132Z,39.95
2024-05-09T05:06:40.610Z,40.06
2024-05-09T05:16:41.981Z,40.71
2024-05-09T05:26:43.410Z,41.68
2024-05-09T05:36:44.808Z,43.23
2024-05-09T05:46:46.617Z,44.49
2024-05-09T05:56:49.244Z,45.53
2024-05-09T06:06:50.986Z,45.95
2024-05-09T06:16:54.652Z,47.17
2024-05-09T06:27:00.433Z,48.00
2024-05-09T06:37:07.712Z,48.22
2024-05-09T06:47:10.621Z,48.61
2024-05-09T06:57:13.588Z,48.81
2024-05-09T07:07:17.469Z,48.62
2024-05-09T07:17:19.009Z,48.21
2024-05-09T07:27:20.469Z,49.08
2024-05-09T07:37:21.841Z,49.99
2024-05-09T07:48:32.142Z,51.52
2024-05-09T07:57:44.614Z,50.39
2024-05-09T08:07:46.002Z,51.08
2024-05-09T08:17:48.568Z,50.41
2024-05-09T08:27:50.012Z,50.51
2024-05-09T08:37:51.527Z,50.59
2024-05-09T08:47:58.842Z,50.49
2024-05-09T08:58:03.205Z,51.33
2024-05-09T09:18:14.565Z,51.52
2024-05-09T09:28:22.012Z,51.54
2024-05-09T09:38:30.001Z,51.60
2024-05-09T09:48:39.616Z,51.37
2024-05-09T09:58:58.670Z,51.64
2024-05-09T10:09:01.171Z,51.46
2024-05-09T10:19:02.724Z,50.80
2024-05-09T10:29:10.982Z,50.65
2024-05-09T10:39:19.025Z,50.41
2024-05-09T10:49:28.081Z,50.64
2024-05-09T10:59:36.012Z,50.87
2024-05-09T11:09:44.036Z,50.50
2024-05-09T11:19:52.262Z,49.99
2024-05-09T11:30:02.373Z,49.63
2024-05-09T11:40:25.746Z,49.83
2024-05-09T11:50:35.900Z,50.19
2024-05-09T12:00:38.176Z,49.72
2024-05-09T12:21:08.871Z,49.45
2024-05-09T12:31:25.799Z,49.21
2024-05-09T12:41:27.369Z,48.89
2024-05-09T12:51:28.933Z,48.73
2024-05-09T13:01:30.700Z,48.36
2024-05-09T13:11:34.328Z,48.02
2024-05-09T13:21:42.145Z,48.21
2024-05-09T13:31:52.187Z,48.00
2024-05-09T13:41:56.090Z,47.95
2024-05-09T13:51:57.578Z,47.60
2024-05-09T14:02:05.596Z,47.52
2024-05-09T14:12:14.039Z,47.16
2024-05-09T14:22:22.134Z,47.23
2024-05-09T14:32:30.932Z,47.19
2024-05-09T14:42:39.319Z,46.95
2024-05-09T14:52:47.066Z,47.00
2024-05-09T15:02:55.140Z,46.93
2024-05-09T15:23:11.787Z,47.15
2024-05-09T15:43:49.142Z,47.53
2024-05-09T15:53:58.087Z,47.75
2024-05-09T16:04:06.247Z,47.95
2024-05-09T16:14:17.214Z,47.68
2024-05-09T16:24:21.444Z,47.79
2024-05-09T16:34:29.459Z,47.70
2024-05-09T16:44:38.642Z,48.28
2024-05-09T16:54:46.618Z,48.33
2024-05-09T17:04:56.853Z,48.07
2024-05-09T17:15:05.089Z,47.76
2024-05-09T17:35:20.971Z,47.65
2024-05-09T17:45:29.107Z,47.20
2024-05-09T17:55:37.252Z,47.25
2024-05-09T18:05:45.825Z,47.25
2024-05-09T18:15:54.281Z,47.05
2024-05-09T18:26:02.186Z,46.87
2024-05-09T18:36:10.118Z,46.95
2024-05-09T18:46:15.893Z,46.90
2024-05-09T18:56:27.617Z,47.05
2024-05-09T19:06:35.147Z,47.04
2024-05-09T19:16:36.646Z,47.06
2024-05-09T19:26:38.031Z,47.04
2024-05-09T19:36:39.544Z,46.73
2024-05-09T19:46:41.978Z,46.71
2024-05-09T19:56:43.424Z,46.71
2024-05-09T20:06:44.830Z,46.89
2024-05-09T20:16:47.318Z,47.30
2024-05-09T20:26:48.732Z,47.11
2024-05-09T20:36:50.161Z,47.40
2024-05-09T20:46:51.568Z,47.16
2024-05-09T20:56:52.974Z,47.47
2024-05-09T21:06:54.406Z,47.53
2024-05-09T21:16:56.039Z,47.40
2024-05-09T21:26:57.521Z,47.74
2024-05-09T21:36:58.921Z,47.51
2024-05-09T21:47:00.351Z,47.50
2024-05-09T21:57:01.781Z,47.44
2024-05-09T22:07:03.301Z,47.30
2024-05-09T22:17:04.803Z,47.32
2024-05-09T22:27:06.199Z,47.21
2024-05-09T22:37:07.661Z,47.24
2024-05-09T22:47:09.222Z,46.85
2024-05-09T22:57:10.667Z,47.17
2024-05-09T23:07:12.063Z,47.34
2024-05-09T23:17:13.539Z,47.21
2024-05-09T23:27:14.922Z,46.84
2024-05-09T23:37:16.448Z,46.97
2024-05-09T23:47:18.000Z,47.21
2024-05-09T23:57:19.436Z,46.93
